createdAt,value
2022-11-16T00:01:15.006Z,99580.00
2022-11-16T00:03:42.829Z,99575.00
2022-11-16T00:06:12.142Z,99592.00
2022-11-16T00:08:41.702Z,99590.00
2022-11-16T00:11:11.242Z,99585.00
2022-11-16T00:13:40.330Z,99587.00
2022-11-16T00:16:09.363Z,99577.00
2022-11-16T00:18:38.420Z,99579.00
2022-11-16T00:21:06.693Z,99569.00
2022-11-16T00:23:38.300Z,99571.00
2022-11-16T00:26:06.677Z,99576.00
2022-11-16T00:28:34.969Z,99568.00
2022-11-16T00:31:04.884Z,99568.00
2022-11-16T00:33:33.137Z,99568.00
2022-11-16T00:36:03.618Z,99571.00
2022-11-16T00:38:31.795Z,99552.00
2022-11-16T00:41:00.096Z,99552.00
2022-11-16T00:43:28.207Z,99551.00
2022-11-16T00:45:55.873Z,99555.00
2022-11-16T00:48:23.729Z,99551.00
2022-11-16T00:50:51.578Z,99545.00
2022-11-16T00:53:21.455Z,99543.00
2022-11-16T00:55:49.299Z,99546.00
2022-11-16T00:58:17.509Z,99536.00
2022-11-16T01:00:45.609Z,99542.00
2022-11-16T01:03:13.360Z,99537.00
2022-11-16T01:05:41.058Z,99546.00
2022-11-16T01:08:08.798Z,99538.00
2022-11-16T01:10:40.008Z,99535.00
2022-11-16T01:13:07.158Z,99523.00
2022-11-16T01:15:34.954Z,99528.00
2022-11-16T01:18:02.631Z,99524.00
2022-11-16T01:20:30.957Z,99523.00
2022-11-16T01:22:58.671Z,99522.00
2022-11-16T01:25:26.325Z,99515.00
2022-11-16T01:27:55.343Z,99526.00
2022-11-16T01:30:23.072Z,99516.00
2022-11-16T01:32:50.737Z,99506.00
2022-11-16T01:35:19.882Z,99513.00
2022-11-16T01:37:47.562Z,99510.00
2022-11-16T01:40:15.542Z,99506.00
2022-11-16T01:42:43.487Z,99501.00
2022-11-16T01:45:22.936Z,99501.00
2022-11-16T01:47:51.461Z,99494.00
2022-11-16T01:50:19.967Z,99497.00
2022-11-16T01:52:54.548Z,99492.00
2022-11-16T01:55:24.555Z,99487.00
2022-11-16T01:57:52.327Z,99492.00
2022-11-16T02:00:21.583Z,99483.00
2022-11-16T02:02:49.319Z,99485.00
2022-11-16T02:05:21.808Z,99480.00
2022-11-16T02:08:21.127Z,99481.00
2022-11-16T02:11:11.163Z,99477.00
2022-11-16T02:13:47.071Z,99484.00
2022-11-16T02:16:26.427Z,99477.00
2022-11-16T02:19:03.284Z,99488.00
2022-11-16T02:21:42.123Z,99483.00
2022-11-16T02:24:31.319Z,99472.00
2022-11-16T02:27:43.353Z,99474.00
2022-11-16T02:30:12.543Z,99471.00
2022-11-16T02:32:44.992Z,99478.00
2022-11-16T02:35:17.698Z,99478.00
2022-11-16T02:37:49.565Z,99468.00
2022-11-16T02:40:21.075Z,99464.00
2022-11-16T02:42:53.055Z,99465.00
2022-11-16T02:45:25.432Z,99465.00
2022-11-16T02:47:55.786Z,99463.00
2022-11-16T02:50:24.863Z,99470.00
2022-11-16T02:52:52.602Z,99473.00
2022-11-16T02:55:20.369Z,99465.00
2022-11-16T02:57:52.691Z,99471.00
2022-11-16T03:00:25.542Z,99464.00
2022-11-16T03:03:03.217Z,99455.00
2022-11-16T03:05:36.109Z,99468.00
2022-11-16T03:08:14.010Z,99472.00
2022-11-16T03:11:01.893Z,99468.00
2022-11-16T03:13:33.153Z,99477.00
2022-11-16T03:16:06.853Z,99487.00
2022-11-16T03:18:35.315Z,99480.00
2022-11-16T03:21:11.082Z,99494.00
2022-11-16T03:23:39.145Z,99486.00
2022-11-16T03:26:10.290Z,99487.00
2022-11-16T03:28:44.430Z,99489.00
2022-11-16T03:31:19.146Z,99490.00
2022-11-16T03:33:52.370Z,99483.00
2022-11-16T03:36:25.869Z,99484.00
2022-11-16T03:38:55.481Z,99484.00
2022-11-16T03:41:25.401Z,99478.00
2022-11-16T03:43:54.180Z,99497.00
2022-11-16T03:46:23.355Z,99489.00
2022-11-16T03:48:57.678Z,99492.00
2022-11-16T03:51:26.082Z,99499.00
2022-11-16T03:53:53.765Z,99485.00
2022-11-16T03:56:21.729Z,99473.00
2022-11-16T03:58:49.450Z,99499.00
2022-11-16T04:01:17.182Z,99515.00
2022-11-16T04:03:46.286Z,99495.00
2022-11-16T04:06:31.640Z,99492.00
2022-11-16T04:09:16.298Z,99488.00
2022-11-16T04:12:01.508Z,99481.00
2022-11-16T04:14:47.398Z,99483.00
2022-11-16T04:17:33.401Z,99489.00
2022-11-16T04:20:20.003Z,99471.00
2022-11-16T04:23:09.378Z,99476.00
2022-11-16T04:25:39.507Z,99481.00
2022-11-16T04:28:16.288Z,99502.00
2022-11-16T04:31:04.858Z,99485.00
2022-11-16T04:33:51.086Z,99515.00
2022-11-16T04:36:37.733Z,99485.00
2022-11-16T04:39:05.937Z,99506.00
2022-11-16T04:41:51.911Z,99502.00
2022-11-16T04:44:20.345Z,99512.00
2022-11-16T04:47:05.906Z,99507.00
2022-11-16T04:49:34.034Z,99519.00
2022-11-16T04:52:03.129Z,99502.00
2022-11-16T04:54:30.858Z,99502.00
2022-11-16T04:56:58.570Z,99486.00
2022-11-16T04:59:26.235Z,99492.00
2022-11-16T05:02:11.947Z,99487.00
2022-11-16T05:04:41.389Z,99489.00
2022-11-16T05:07:12.057Z,99500.00
2022-11-16T05:09:42.619Z,99473.00
2022-11-16T05:12:10.829Z,99501.00
2022-11-16T05:14:38.576Z,99496.00
2022-11-16T05:17:06.220Z,99486.00
2022-11-16T05:19:51.571Z,99491.00
2022-11-16T05:22:20.861Z,99492.00
2022-11-16T05:24:48.519Z,99485.00
2022-11-16T05:27:17.596Z,99491.00
2022-11-16T05:29:46.517Z,99489.00
2022-11-16T05:32:14.508Z,99486.00
2022-11-16T05:34:42.496Z,99493.00
2022-11-16T05:37:10.718Z,99493.00
2022-11-16T05:39:39.821Z,99505.00
2022-11-16T05:42:08.084Z,99511.00
2022-11-16T05:44:35.918Z,99493.00
2022-11-16T05:47:03.769Z,99501.00
2022-11-16T05:49:31.610Z,99488.00
2022-11-16T05:51:59.363Z,99489.00
2022-11-16T05:54:27.121Z,99488.00
2022-11-16T05:56:56.214Z,99499.00
2022-11-16T05:59:24.582Z,99501.00
2022-11-16T06:01:52.965Z,99504.00
2022-11-16T06:04:24.709Z,99522.00
2022-11-16T06:06:52.938Z,99505.00
2022-11-16T06:09:20.987Z,99510.00
2022-11-16T06:11:48.720Z,99511.00
2022-11-16T06:14:17.751Z,99512.00
2022-11-16T06:16:45.452Z,99505.00
2022-11-16T06:19:13.154Z,99524.00
2022-11-16T06:21:40.864Z,99523.00
2022-11-16T06:24:09.476Z,99529.00
2022-11-16T06:26:37.477Z,99527.00
2022-11-16T06:29:05.529Z,99528.00
2022-11-16T06:31:34.531Z,99523.00
2022-11-16T06:34:02.216Z,99526.00
2022-11-16T06:36:29.949Z,99532.00
2022-11-16T06:39:00.126Z,99539.00
2022-11-16T06:41:27.801Z,99529.00
2022-11-16T06:43:55.567Z,99533.00
2022-11-16T06:46:24.759Z,99529.00
2022-11-16T06:48:53.858Z,99543.00
2022-11-16T06:51:21.501Z,99526.00
2022-11-16T06:53:49.155Z,99531.00
2022-11-16T06:56:17.033Z,99524.00
2022-11-16T06:58:44.737Z,99527.00
2022-11-16T07:01:13.205Z,99515.00
2022-11-16T07:03:40.890Z,99528.00
2022-11-16T07:06:12.180Z,99527.00
2022-11-16T07:08:39.878Z,99519.00
2022-11-16T07:11:09.271Z,99530.00
2022-11-16T07:13:38.979Z,99529.00
2022-11-16T07:16:08.035Z,99526.00
2022-11-16T07:18:36.964Z,99529.00
2022-11-16T07:21:10.313Z,99526.00
2022-11-16T07:23:38.339Z,99529.00
2022-11-16T07:26:08.038Z,99530.00
2022-11-16T07:28:36.092Z,99530.00
2022-11-16T07:31:05.255Z,99529.00
2022-11-16T07:33:32.994Z,99531.00
2022-11-16T07:36:02.949Z,99528.00
2022-11-16T07:38:32.966Z,99534.00
2022-11-16T07:41:02.606Z,99522.00
2022-11-16T07:43:31.678Z,99531.00
2022-11-16T07:46:30.230Z,99528.00
2022-11-16T07:48:50.966Z,99523.00
2022-11-16T07:51:19.494Z,99517.00
2022-11-16T07:53:48.563Z,99517.00
2022-11-16T07:56:16.234Z,99517.00
2022-11-16T07:58:43.923Z,99518.00
2022-11-16T08:01:12.953Z,99522.00
2022-11-16T08:03:41.759Z,99515.00
2022-11-16T08:06:13.385Z,99521.00
2022-11-16T08:08:41.106Z,99524.00
2022-11-16T08:11:12.496Z,99527.00
2022-11-16T08:13:41.744Z,99537.00
2022-11-16T08:16:12.022Z,99535.00
2022-11-16T08:18:40.544Z,99533.00
2022-11-16T08:21:09.461Z,99531.00
2022-11-16T08:23:37.417Z,99537.00
2022-11-16T08:26:06.768Z,99536.00
2022-11-16T08:28:36.207Z,99546.00
2022-11-16T08:31:09.199Z,99539.00
2022-11-16T08:33:36.969Z,99553.00
2022-11-16T08:36:10.886Z,99545.00
2022-11-16T08:38:41.426Z,99550.00
2022-11-16T08:41:09.451Z,99555.00
2022-11-16T08:43:39.495Z,99561.00
2022-11-16T08:46:07.527Z,99566.00
2022-11-16T08:48:35.846Z,99557.00
2022-11-16T08:51:20.906Z,99560.00
2022-11-16T08:53:49.873Z,99564.00
2022-11-16T08:56:19.512Z,99576.00
2022-11-16T08:58:52.508Z,99566.00
2022-11-16T09:01:25.937Z,99581.00
2022-11-16T09:03:54.570Z,99581.00
2022-11-16T09:06:22.941Z,99578.00
2022-11-16T09:08:51.081Z,99585.00
2022-11-16T09:11:21.981Z,99578.00
2022-11-16T09:13:52.616Z,99586.00
2022-11-16T09:16:21.688Z,99579.00
2022-11-16T09:18:50.786Z,99584.00
2022-11-16T09:21:20.076Z,99597.00
2022-11-16T09:23:48.941Z,99592.00
2022-11-16T09:26:20.476Z,99585.00
2022-11-16T09:28:48.247Z,99576.00
2022-11-16T09:31:22.964Z,99583.00
2022-11-16T09:33:54.051Z,99582.00
2022-11-16T09:36:22.180Z,99591.00
2022-11-16T09:41:56.779Z,99601.00
2022-11-16T09:44:48.055Z,99584.00
2022-11-16T09:47:19.660Z,99589.00
2022-11-16T09:49:52.224Z,99590.00
2022-11-16T09:52:28.041Z,99577.00
2022-11-16T09:54:59.045Z,99571.00
2022-11-16T09:57:32.545Z,99574.00
2022-11-16T10:00:05.562Z,99575.00
2022-11-16T10:02:39.784Z,99582.00
2022-11-16T10:05:18.820Z,99574.00
2022-11-16T10:07:49.356Z,99570.00
2022-11-16T10:10:18.880Z,99572.00
2022-11-16T10:12:51.853Z,99571.00
2022-11-16T10:15:36.826Z,99568.00
2022-11-16T10:18:24.237Z,99572.00
2022-11-16T10:21:03.762Z,99572.00
2022-11-16T10:23:42.920Z,99561.00
2022-11-16T10:26:24.730Z,99574.00
2022-11-16T10:29:05.039Z,99551.00
2022-11-16T10:31:51.412Z,99554.00
2022-11-16T10:34:23.548Z,99564.00
2022-11-16T10:36:51.444Z,99566.00
2022-11-16T10:39:20.463Z,99563.00
2022-11-16T10:41:50.589Z,99568.00
2022-11-16T10:44:22.761Z,99568.00
2022-11-16T10:46:59.784Z,99571.00
2022-11-16T10:49:37.979Z,99557.00
2022-11-16T10:52:05.973Z,99563.00
2022-11-16T10:54:33.620Z,99564.00
2022-11-16T10:57:05.912Z,99551.00
2022-11-16T10:59:41.962Z,99542.00
2022-11-16T11:02:31.143Z,99546.00
2022-11-16T11:05:15.325Z,99548.00
2022-11-16T11:07:47.682Z,99538.00
2022-11-16T11:10:29.414Z,99544.00
2022-11-16T11:13:21.751Z,99547.00
2022-11-16T11:15:51.284Z,99544.00
2022-11-16T11:18:25.997Z,99546.00
2022-11-16T11:21:15.322Z,99554.00
2022-11-16T11:23:45.565Z,99546.00
2022-11-16T11:26:35.935Z,99554.00
2022-11-16T11:29:16.799Z,99555.00
2022-11-16T11:31:47.239Z,99567.00
2022-11-16T11:34:18.844Z,99542.00
2022-11-16T11:36:51.744Z,99548.00
2022-11-16T11:39:34.963Z,99545.00
2022-11-16T11:42:20.579Z,99539.00
2022-11-16T11:44:54.794Z,99545.00
2022-11-16T11:47:58.101Z,99541.00
2022-11-16T11:50:32.564Z,99541.00
2022-11-16T11:53:06.460Z,99542.00
2022-11-16T11:55:35.092Z,99547.00
2022-11-16T11:58:05.412Z,99546.00
2022-11-16T12:00:42.610Z,99543.00
2022-11-16T12:03:32.383Z,99537.00
2022-11-16T12:06:08.626Z,99536.00
2022-11-16T12:09:04.828Z,99538.00
2022-11-16T12:11:44.409Z,99530.00
2022-11-16T12:14:31.181Z,99536.00
2022-11-16T12:17:08.020Z,99532.00
2022-11-16T12:19:56.403Z,99538.00
2022-11-16T12:22:41.780Z,99526.00
2022-11-16T12:25:21.963Z,99540.00
2022-11-16T12:27:57.694Z,99541.00
2022-11-16T12:30:25.893Z,99541.00
2022-11-16T12:33:05.810Z,99534.00
2022-11-16T12:35:45.572Z,99536.00
2022-11-16T12:38:27.537Z,99533.00
2022-11-16T12:41:13.421Z,99538.00
2022-11-16T12:43:52.379Z,99530.00
2022-11-16T12:46:28.262Z,99536.00
2022-11-16T12:49:25.383Z,99545.00
2022-11-16T12:52:02.470Z,99529.00
2022-11-16T12:55:24.066Z,99526.00
2022-11-16T12:57:53.985Z,99539.00
2022-11-16T13:00:21.865Z,99533.00
2022-11-16T13:03:05.131Z,99539.00
2022-11-16T13:05:48.362Z,99541.00
2022-11-16T13:08:24.166Z,99530.00
2022-11-16T13:10:58.425Z,99539.00
2022-11-16T13:13:49.664Z,99544.00
2022-11-16T13:16:18.438Z,99544.00
2022-11-16T13:18:46.120Z,99529.00
2022-11-16T13:21:23.601Z,99537.00
2022-11-16T13:24:03.846Z,99534.00
2022-11-16T13:26:36.982Z,99529.00
2022-11-16T13:29:16.819Z,99521.00
2022-11-16T13:31:50.953Z,99527.00
2022-11-16T13:34:23.887Z,99528.00
2022-11-16T13:36:51.630Z,99524.00
2022-11-16T13:39:22.951Z,99523.00
2022-11-16T13:41:52.923Z,99533.00
2022-11-16T13:44:30.694Z,99522.00
2022-11-16T13:47:04.972Z,99520.00
2022-11-16T13:49:36.309Z,99511.00
2022-11-16T13:52:22.543Z,99504.00
2022-11-16T13:54:54.176Z,99500.00
2022-11-16T13:57:26.123Z,99491.00
2022-11-16T14:00:10.383Z,99504.00
2022-11-16T14:02:39.980Z,99498.00
2022-11-16T14:05:17.385Z,99501.00
2022-11-16T14:07:47.932Z,99507.00
2022-11-16T14:10:50.028Z,99502.00
2022-11-16T14:13:39.849Z,99504.00
2022-11-16T14:16:48.955Z,99509.00
2022-11-16T14:19:55.011Z,99510.00
2022-11-16T14:22:48.586Z,99503.00
2022-11-16T14:25:39.456Z,99500.00
2022-11-16T14:28:24.988Z,99497.00
2022-11-16T14:31:01.964Z,99500.00
2022-11-16T14:33:33.463Z,99503.00
2022-11-16T14:36:03.409Z,99510.00
2022-11-16T14:38:34.391Z,99510.00
2022-11-16T14:41:04.356Z,99499.00
2022-11-16T14:43:36.775Z,99493.00
2022-11-16T14:46:08.530Z,99516.00
2022-11-16T14:48:44.580Z,99499.00
2022-11-16T14:51:16.065Z,99509.00
2022-11-16T14:53:49.355Z,99513.00
2022-11-16T14:56:18.859Z,99518.00
2022-11-16T14:58:57.442Z,99502.00
2022-11-16T15:01:28.860Z,99499.00
2022-11-16T15:04:02.281Z,99505.00
2022-11-16T15:06:36.953Z,99506.00
2022-11-16T15:09:06.833Z,99510.00
2022-11-16T15:11:56.695Z,99501.00
2022-11-16T15:14:27.764Z,99502.00
2022-11-16T15:16:57.676Z,99505.00
2022-11-16T15:19:25.875Z,99493.00
2022-11-16T15:21:55.252Z,99503.00
2022-11-16T15:24:31.049Z,99501.00
2022-11-16T15:27:10.562Z,99496.00
2022-11-16T15:29:38.816Z,99501.00
2022-11-16T15:32:08.498Z,99503.00
2022-11-16T15:34:40.118Z,99510.00
2022-11-16T15:37:11.728Z,99510.00
2022-11-16T15:39:40.987Z,99507.00
2022-11-16T15:42:14.228Z,99499.00
2022-11-16T15:44:43.259Z,99505.00
2022-11-16T15:47:13.487Z,99506.00
2022-11-16T15:49:44.040Z,99492.00
2022-11-16T15:52:11.953Z,99493.00
2022-11-16T15:55:00.546Z,99492.00
2022-11-16T15:57:28.149Z,99489.00
2022-11-16T15:59:57.498Z,99485.00
2022-11-16T16:02:28.135Z,99498.00
2022-11-16T16:04:55.848Z,99498.00
2022-11-16T16:07:40.343Z,99503.00
2022-11-16T16:10:23.513Z,99498.00
2022-11-16T16:12:52.282Z,99512.00
2022-11-16T16:15:25.021Z,99508.00
2022-11-16T16:17:53.733Z,99494.00
2022-11-16T16:20:23.799Z,99494.00
2022-11-16T16:22:54.645Z,99494.00
2022-11-16T16:25:32.149Z,99497.00
2022-11-16T16:28:00.084Z,99493.00
2022-11-16T16:30:29.535Z,99505.00
2022-11-16T16:32:57.489Z,99515.00
2022-11-16T16:35:26.758Z,99517.00
2022-11-16T16:37:58.763Z,99514.00
2022-11-16T16:40:27.164Z,99514.00
2022-11-16T16:42:57.851Z,99512.00
2022-11-16T16:45:33.588Z,99514.00
2022-11-16T16:48:01.567Z,99499.00
2022-11-16T16:50:29.264Z,99493.00
2022-11-16T16:52:56.931Z,99495.00
2022-11-16T16:55:24.765Z,99499.00
2022-11-16T16:57:53.931Z,99502.00
2022-11-16T17:00:23.135Z,99496.00
2022-11-16T17:05:16.474Z,99510.00
2022-11-16T17:07:44.224Z,99514.00
2022-11-16T17:10:12.090Z,99509.00
2022-11-16T17:12:40.023Z,99502.00
2022-11-16T17:15:08.971Z,99514.00
2022-11-16T17:17:41.626Z,99517.00
2022-11-16T17:20:11.412Z,99504.00
2022-11-16T17:22:39.108Z,99511.00
2022-11-16T17:25:07.049Z,99507.00
2022-11-16T17:27:34.745Z,99503.00
2022-11-16T17:30:02.485Z,99509.00
2022-11-16T17:32:31.493Z,99505.00
2022-11-16T17:35:00.557Z,99509.00
2022-11-16T17:37:28.314Z,99499.00
2022-11-16T17:39:56.036Z,99497.00
2022-11-16T17:42:23.769Z,99501.00
2022-11-16T17:44:53.440Z,99495.00
2022-11-16T17:47:21.127Z,99492.00
2022-11-16T17:49:48.790Z,99485.00
2022-11-16T17:52:17.902Z,99483.00
2022-11-16T17:54:45.564Z,99495.00
2022-11-16T17:57:13.343Z,99493.00
2022-11-16T17:59:40.999Z,99492.00
2022-11-16T18:02:11.394Z,99497.00
2022-11-16T18:04:39.122Z,99489.00
2022-11-16T18:07:06.898Z,99484.00
2022-11-16T18:09:36.080Z,99488.00
2022-11-16T18:12:04.038Z,99492.00
2022-11-16T18:14:31.707Z,99476.00
2022-11-16T18:16:59.424Z,99480.00
2022-11-16T18:19:27.262Z,99494.00
2022-11-16T18:21:54.949Z,99496.00
2022-11-16T18:24:22.642Z,99499.00
2022-11-16T18:26:51.687Z,99489.00
2022-11-16T18:29:19.414Z,99481.00
2022-11-16T18:31:47.068Z,99480.00
2022-11-16T18:34:15.424Z,99480.00
2022-11-16T18:36:43.148Z,99492.00
2022-11-16T18:39:10.825Z,99491.00
2022-11-16T18:41:48.582Z,99493.00
2022-11-16T18:44:20.634Z,99498.00
2022-11-16T18:46:48.396Z,99494.00
2022-11-16T18:49:16.078Z,99491.00
2022-11-16T18:51:43.794Z,99502.00
2022-11-16T18:54:11.479Z,99488.00
2022-11-16T18:56:39.166Z,99488.00
2022-11-16T18:59:06.860Z,99487.00
2022-11-16T19:01:35.972Z,99483.00
2022-11-16T19:04:03.689Z,99490.00
2022-11-16T19:06:32.846Z,99486.00
2022-11-16T19:09:00.557Z,99497.00
2022-11-16T19:11:29.330Z,99494.00
2022-11-16T19:14:00.462Z,99488.00
2022-11-16T19:16:28.495Z,99492.00
2022-11-16T19:18:57.650Z,99486.00
2022-11-16T19:21:25.704Z,99482.00
2022-11-16T19:23:54.978Z,99481.00
2022-11-16T19:26:24.683Z,99471.00
2022-11-16T19:28:53.516Z,99470.00
2022-11-16T19:31:23.263Z,99463.00
2022-11-16T19:33:54.947Z,99452.00
2022-11-16T19:36:24.866Z,99452.00
2022-11-16T19:38:53.710Z,99461.00
2022-11-16T19:41:22.797Z,99452.00
2022-11-16T19:43:52.462Z,99460.00
2022-11-16T19:46:22.032Z,99465.00
2022-11-16T19:48:50.300Z,99451.00
2022-11-16T19:51:20.013Z,99445.00
2022-11-16T19:53:49.727Z,99446.00
2022-11-16T19:56:19.985Z,99458.00
2022-11-16T19:58:47.860Z,99461.00
2022-11-16T20:01:18.069Z,99461.00
2022-11-16T20:03:46.619Z,99458.00
2022-11-16T20:06:16.581Z,99458.00
2022-11-16T20:08:50.489Z,99453.00
2022-11-16T20:11:20.598Z,99452.00
2022-11-16T20:13:48.858Z,99463.00
2022-11-16T20:16:17.832Z,99457.00
2022-11-16T20:18:46.052Z,99458.00
2022-11-16T20:21:19.276Z,99459.00
2022-11-16T20:23:46.953Z,99450.00
2022-11-16T20:26:16.297Z,99458.00
2022-11-16T20:28:44.252Z,99444.00
2022-11-16T20:31:14.966Z,99457.00
2022-11-16T20:33:43.831Z,99448.00
2022-11-16T20:36:12.466Z,99449.00
2022-11-16T20:38:40.694Z,99452.00
2022-11-16T20:41:09.845Z,99459.00
2022-11-16T20:43:40.230Z,99456.00
2022-11-16T20:46:08.634Z,99452.00
2022-11-16T20:48:36.467Z,99463.00
2022-11-16T20:51:04.789Z,99456.00
2022-11-16T20:53:33.435Z,99460.00
2022-11-16T20:56:02.477Z,99462.00
2022-11-16T20:58:30.528Z,99475.00
2022-11-16T21:01:02.126Z,99473.00
2022-11-16T21:03:30.118Z,99465.00
2022-11-16T21:05:58.570Z,99455.00
2022-11-16T21:08:27.085Z,99456.00
2022-11-16T21:10:54.888Z,99450.00
2022-11-16T21:13:40.118Z,99455.00
2022-11-16T21:16:11.346Z,99446.00
2022-11-16T21:18:39.395Z,99454.00
2022-11-16T21:21:08.716Z,99454.00
2022-11-16T21:23:37.529Z,99447.00
2022-11-16T21:26:06.788Z,99454.00
2022-11-16T21:28:35.339Z,99457.00
2022-11-16T21:31:04.672Z,99462.00
2022-11-16T21:33:34.656Z,99461.00
2022-11-16T21:36:04.947Z,99456.00
2022-11-16T21:38:33.910Z,99450.00
2022-11-16T21:41:01.803Z,99455.00
2022-11-16T21:43:29.502Z,99448.00
2022-11-16T21:46:02.947Z,99451.00
2022-11-16T21:48:34.164Z,99435.00
2022-11-16T21:51:02.515Z,99442.00
2022-11-16T21:53:30.441Z,99444.00
2022-11-16T21:55:58.411Z,99449.00
2022-11-16T21:58:26.399Z,99452.00
2022-11-16T22:00:58.167Z,99449.00
2022-11-16T22:03:27.213Z,99446.00
2022-11-16T22:06:15.251Z,99432.00
2022-11-16T22:08:43.752Z,99432.00
2022-11-16T22:11:11.880Z,99434.00
2022-11-16T22:13:39.995Z,99424.00
2022-11-16T22:16:09.256Z,99429.00
2022-11-16T22:18:37.431Z,99420.00
2022-11-16T22:21:07.098Z,99428.00
2022-11-16T22:23:35.915Z,99413.00
2022-11-16T22:26:04.871Z,99419.00
2022-11-16T22:28:33.686Z,99424.00
2022-11-16T22:31:02.760Z,99419.00
2022-11-16T22:33:30.698Z,99423.00
2022-11-16T22:35:58.484Z,99414.00
2022-11-16T22:38:28.071Z,99419.00
2022-11-16T22:40:57.298Z,99417.00
2022-11-16T22:43:26.327Z,99419.00
2022-11-16T22:45:58.901Z,99418.00
2022-11-16T22:48:31.128Z,99408.00
2022-11-16T22:51:06.762Z,99411.00
2022-11-16T22:53:36.423Z,99404.00
2022-11-16T22:56:06.395Z,99417.00
2022-11-16T22:58:34.157Z,99413.00
2022-11-16T23:01:01.859Z,99410.00
2022-11-16T23:03:30.148Z,99406.00
2022-11-16T23:05:58.057Z,99387.00
2022-11-16T23:08:25.892Z,99400.00
2022-11-16T23:11:20.535Z,99381.00
2022-11-16T23:14:06.139Z,99363.00
2022-11-16T23:16:34.241Z,99374.00
2022-11-16T23:19:02.197Z,99340.00
2022-11-16T23:21:47.779Z,99372.00
2022-11-16T23:24:34.343Z,99365.00
2022-11-16T23:27:22.406Z,99354.00
2022-11-16T23:29:50.459Z,99366.00
2022-11-16T23:32:18.164Z,99340.00
2022-11-16T23:34:45.932Z,99354.00
2022-11-16T23:37:13.689Z,99353.00
2022-11-16T23:39:41.558Z,99348.00
2022-11-16T23:42:28.550Z,99343.00
2022-11-16T23:44:56.345Z,99346.00
2022-11-16T23:47:24.711Z,99334.00
2022-11-16T23:49:52.496Z,99337.00
2022-11-16T23:52:20.251Z,99334.00
2022-11-16T23:54:48.005Z,99322.00
2022-11-16T23:57:17.234Z,99326.00
2022-11-16T23:59:45.096Z,99321.00
